Time;durP1;ratioP1;P1;durP2;ratioP2;P2;SDS_P1;SDS_P2;PMS_P1;PMS_P2;Temp;Humidity;BMP_temperature;BMP_pressure;BME280_temperature;BME280_humidity;BME280_pressure;Samples;Min_cycle;Max_cycle;Signal;HPM_P1;HPM_P2
2022/05/19 00:02:26;;;;;;;5.13;3.40;;;;;;;10.38;54.19;101346.23;125082;1101;102966;-79
2022/05/19 00:04:57;;;;;;;;;;;;;;;10.34;53.99;101339.02;125780;1099;102124;-79
2022/05/19 00:07:30;;;;;;;9.83;3.77;;;;;;;10.31;53.17;101339.73;124493;1102;104137;-78
2022/05/19 00:10:04;;;;;;;7.77;3.90;;;;;;;10.27;53.77;101343.04;125078;1102;104172;-78
2022/05/19 00:12:35;;;;;;;;;;;;;;;10.24;53.84;101343.77;124431;1099;104124;-79
2022/05/19 00:15:11;;;;;;;9.53;3.27;;;;;;;10.23;54.10;101341.07;125057;1099;104171;-79
2022/05/19 00:17:45;;;;;;;7.67;3.43;;;;;;;10.21;54.08;101342.73;124616;1099;104173;-78
2022/05/19 00:20:20;;;;;;;6.63;3.23;;;;;;;10.21;53.29;101338.37;124602;1102;102423;-79
2022/05/19 00:22:55;;;;;;;6.00;3.43;;;;;;;10.19;53.32;101344.35;124430;1099;104255;-78
2022/05/19 00:25:30;;;;;;;8.40;3.60;;;;;;;10.18;53.98;101342.57;124655;1099;102762;-79
2022/05/19 00:28:03;;;;;;;7.70;3.50;;;;;;;10.15;53.58;101342.42;125237;1102;104310;-78
2022/05/19 00:30:37;;;;;;;5.47;3.60;;;;;;;10.14;53.96;101340.61;124490;1102;104237;-78
2022/05/19 00:33:08;;;;;;;;;;;;;;;10.12;53.22;101342.27;124545;1099;104089;-78
2022/05/19 00:35:43;;;;;;;6.90;3.20;;;;;;;10.09;53.87;101337.75;125209;1099;104278;-78
2022/05/19 00:38:19;;;;;;;6.47;3.40;;;;;;;10.10;53.93;101341.26;124659;1099;102916;-79
2022/05/19 00:40:54;;;;;;;7.27;3.40;;;;;;;10.09;53.61;101342.99;125123;1102;102369;-78
2022/05/19 00:43:35;;;;;;;7.23;3.50;;;;;;;10.08;53.71;101339.48;125001;1099;104098;-78
2022/05/19 00:46:12;;;;;;;6.93;3.50;;;;;;;10.07;53.87;101340.29;125165;1099;104247;-79
2022/05/19 00:48:49;;;;;;;12.27;3.90;;;;;;;10.04;54.12;101342.76;124456;1099;104165;-79
2022/05/19 00:51:25;;;;;;;7.73;3.80;;;;;;;10.02;54.28;101341.79;124494;1102;102867;-79
2022/05/19 00:54:01;;;;;;;5.45;3.50;;;;;;;10.02;54.21;101341.79;124480;1099;104256;-78
2022/05/19 00:56:39;;;;;;;9.13;3.70;;;;;;;10.00;53.57;101346.06;125246;1099;102880;-79
2022/05/19 00:59:15;;;;;;;6.47;3.27;;;;;;;9.97;54.41;101344.98;125059;1102;104230;-79
2022/05/19 01:01:47;;;;;;;6.00;3.33;;;;;;;9.91;54.71;101342.97;124534;1099;104166;-78
2022/05/19 01:04:25;;;;;;;7.70;3.83;;;;;;;9.92;54.11;101343.86;125142;1099;101810;-78
2022/05/19 01:07:02;;;;;;;6.90;3.80;;;;;;;9.88;54.45;101340.19;125314;1099;102935;-78
2022/05/19 01:09:37;;;;;;;6.37;3.40;;;;;;;9.87;54.77;101341.00;125083;1099;108674;-78
2022/05/19 01:12:10;;;;;;;6.00;3.75;;;;;;;9.86;54.62;101344.42;124433;1102;102149;-79
2022/05/19 01:14:43;;;;;;;10.53;3.98;;;;;;;9.84;54.56;101333.86;124470;1102;103601;-79
2022/05/19 01:17:16;;;;;;;6.25;3.80;;;;;;;9.83;54.88;101341.64;125310;1099;104168;-79
2022/05/19 01:19:54;;;;;;;7.83;3.53;;;;;;;9.81;54.97;101351.16;124514;1099;119126;-79
2022/05/19 01:22:39;;;;;;;10.17;3.80;;;;;;;9.81;54.61;101351.16;125144;1102;104380;-79
2022/05/19 01:25:21;;;;;;;7.22;3.92;;;;;;;9.77;54.62;101349.19;125213;1099;104243;-79
2022/05/19 01:27:55;;;;;;;10.10;4.00;;;;;;;9.74;54.65;101354.27;124436;1099;104268;-79
2022/05/19 01:30:29;;;;;;;10.30;4.00;;;;;;;9.70;54.74;101354.10;125308;1099;101789;-78
2022/05/19 01:33:03;;;;;;;6.78;3.60;;;;;;;9.71;54.90;101350.67;124875;1102;102455;-79
2022/05/19 01:35:35;;;;;;;7.77;4.00;;;;;;;9.67;55.53;101342.56;125765;1099;104175;-79
2022/05/19 01:38:13;;;;;;;8.40;3.77;;;;;;;9.62;55.44;101350.19;124902;1099;104265;-79
2022/05/19 01:41:08;;;;;;;8.17;4.03;;;;;;;9.58;56.08;101358.69;125116;1099;102515;-79
2022/05/19 01:43:51;;;;;;;5.60;3.60;;;;;;;9.55;55.72;101353.28;124282;1102;102924;-79
2022/05/19 01:46:29;;;;;;;8.17;3.70;;;;;;;9.50;56.72;101360.01;124313;1099;102174;-79
2022/05/19 01:49:06;;;;;;;8.87;4.07;;;;;;;9.45;57.31;101354.52;124991;1099;104428;-79
2022/05/19 01:51:47;;;;;;;7.97;4.30;;;;;;;9.41;57.08;101357.81;125083;1099;102358;-79
2022/05/19 01:54:36;;;;;;;6.97;3.80;;;;;;;9.39;56.86;101356.81;125078;1098;102678;-78
2022/05/19 01:57:14;;;;;;;6.60;3.93;;;;;;;9.35;56.74;101362.72;124443;1099;101809;-78
2022/05/19 01:59:56;;;;;;;6.95;3.60;;;;;;;9.33;57.76;101359.09;124528;1099;104643;-78
2022/05/19 02:02:38;;;;;;;9.80;4.27;;;;;;;9.32;57.04;101357.31;124554;1102;104118;-79
2022/05/19 02:05:22;;;;;;;9.07;4.20;;;;;;;9.32;56.92;101365.17;125109;1102;104313;-79
2022/05/19 02:07:58;;;;;;;6.00;3.90;;;;;;;9.31;57.70;101361.63;125026;1099;104076;-78
2022/05/19 02:10:36;;;;;;;7.90;4.00;;;;;;;9.31;57.70;101371.22;125234;1099;104280;-79
2022/05/19 02:13:11;;;;;;;10.73;4.17;;;;;;;9.29;58.31;101384.23;124921;1099;104252;-79
2022/05/19 02:15:47;;;;;;;8.20;4.60;;;;;;;9.26;58.93;101376.20;125069;1102;104102;-79
2022/05/19 02:18:23;;;;;;;8.53;4.13;;;;;;;9.25;59.47;101376.12;124422;1102;104261;-78
2022/05/19 02:21:00;;;;;;;9.23;3.97;;;;;;;9.22;59.10;101374.22;125003;1099;104169;-78
2022/05/19 02:23:33;;;;;;;9.73;4.63;;;;;;;9.18;59.23;101377.50;125113;1099;104091;-79
2022/05/19 02:26:06;;;;;;;8.33;4.37;;;;;;;9.15;59.24;101385.19;125121;1099;104181;-79
2022/05/19 02:28:44;;;;;;;9.25;4.35;;;;;;;9.12;59.23;101379.78;125064;1102;104159;-79
2022/05/19 02:31:19;;;;;;;10.17;4.40;;;;;;;9.11;58.66;101383.20;125023;1099;102536;-79
2022/05/19 02:33:55;;;;;;;13.40;4.37;;;;;;;9.10;59.72;101384.02;125081;1099;104753;-79
2022/05/19 02:36:29;;;;;;;6.87;3.90;;;;;;;9.08;58.87;101388.27;125071;1102;102168;-79
2022/05/19 02:39:01;;;;;;;9.90;4.17;;;;;;;9.07;59.09;101383.84;125066;1100;104310;-78
2022/05/19 02:41:38;;;;;;;8.03;4.27;;;;;;;9.06;58.79;101393.42;124363;1099;108150;-78
2022/05/19 02:44:17;;;;;;;9.23;4.40;;;;;;;9.06;58.83;101392.53;125057;1099;104245;-79
2022/05/19 02:46:48;;;;;;;10.67;4.20;;;;;;;9.04;59.57;101388.91;124395;1102;104294;-79
2022/05/19 02:49:23;;;;;;;8.57;4.10;;;;;;;9.04;59.78;101399.37;125129;1099;102126;-79
2022/05/19 02:51:57;;;;;;;8.47;4.10;;;;;;;9.05;59.08;101401.19;125021;1099;118550;-79
2022/05/19 02:54:32;;;;;;;9.63;4.05;;;;;;;9.05;59.67;101404.70;124386;1099;104210;-79
2022/05/19 02:57:04;;;;;;;9.40;4.10;;;;;;;9.05;59.42;101403.80;125062;1102;104300;-79
2022/05/19 02:59:37;;;;;;;7.47;3.60;;;;;;;9.04;59.58;101408.16;125021;1099;104539;-79
2022/05/19 03:02:09;;;;;;;8.93;4.20;;;;;;;9.08;59.63;101410.11;125089;1102;102896;-79
2022/05/19 03:04:44;;;;;;;7.73;4.10;;;;;;;9.09;59.12;101409.30;125063;1102;104320;-79
2022/05/19 03:07:20;;;;;;;7.00;3.77;;;;;;;9.12;59.68;101419.06;125064;1099;104300;-78
2022/05/19 03:09:52;;;;;;;9.17;3.90;;;;;;;9.13;59.93;101418.22;124326;1102;102775;-79
2022/05/19 03:12:25;;;;;;;7.03;4.00;;;;;;;9.14;60.20;101422.66;124982;1099;110296;-79
2022/05/19 03:15:00;;;;;;;7.03;4.13;;;;;;;9.16;60.50;101427.17;124377;1102;104243;-79
2022/05/19 03:17:35;;;;;;;7.73;4.20;;;;;;;9.19;60.32;101426.42;124431;1102;104182;-78
2022/05/19 03:20:13;;;;;;;10.50;4.50;;;;;;;9.20;59.55;101423.00;124490;1102;104275;-79
2022/05/19 03:22:47;;;;;;;8.60;3.80;;;;;;;9.23;59.96;101425.79;125222;1102;104297;-79
2022/05/19 03:25:21;;;;;;;10.98;4.45;;;;;;;9.25;60.35;101437.24;125207;1102;103219;-79
2022/05/19 03:27:53;;;;;;;7.43;4.37;;;;;;;9.27;60.17;101429.47;125702;1099;104264;-79
2022/05/19 03:30:26;;;;;;;10.10;4.20;;;;;;;9.30;60.20;101429.64;125114;1099;104280;-79
2022/05/19 03:33:00;;;;;;;7.73;4.13;;;;;;;9.29;59.78;101439.23;124383;1102;108209;-78
2022/05/19 03:35:33;;;;;;;8.47;4.30;;;;;;;9.30;59.95;101432.27;124458;1098;104191;-79
2022/05/19 03:38:04;;;;;;;6.50;3.90;;;;;;;9.31;60.30;101434.08;124502;1102;104272;-78
2022/05/19 03:40:36;;;;;;;9.03;4.30;;;;;;;9.33;60.71;101435.98;124530;1099;102527;-80
2022/05/19 03:43:07;;;;;;;11.37;4.03;;;;;;;9.37;60.75;101430.91;124461;1102;102897;-79
2022/05/19 03:45:41;;;;;;;6.90;4.03;;;;;;;9.42;60.78;101434.67;125182;1099;104268;-79
2022/05/19 03:48:14;;;;;;;9.13;4.20;;;;;;;9.49;60.38;101437.72;124728;1099;104173;-80
2022/05/19 03:50:49;;;;;;;7.97;4.40;;;;;;;9.56;59.80;101438.05;125418;1099;104535;-79
2022/05/19 03:53:23;;;;;;;9.53;4.23;;;;;;;9.63;60.17;101441.09;124333;1099;104262;-79
2022/05/19 03:55:56;;;;;;;10.80;4.60;;;;;;;9.71;59.69;101447.64;124365;1099;104328;-79
2022/05/19 03:58:27;;;;;;;13.55;4.10;;;;;;;9.79;59.85;101447.17;124398;1099;104217;-79
2022/05/19 04:01:00;;;;;;;11.43;4.70;;;;;;;9.87;60.65;101443.23;124360;1099;104159;-78
2022/05/19 04:03:34;;;;;;;7.40;4.42;;;;;;;9.93;60.67;101440.94;124327;1099;104638;-78
2022/05/19 04:06:06;;;;;;;11.80;4.40;;;;;;;9.99;60.24;101446.52;124334;1102;102810;-80
2022/05/19 04:08:39;;;;;;;12.00;4.87;;;;;;;10.01;60.09;101447.48;125080;1099;102765;-80
2022/05/19 04:11:12;;;;;;;9.27;4.50;;;;;;;10.05;60.68;101446.84;124338;1102;102074;-79
2022/05/19 04:13:45;;;;;;;13.85;4.60;;;;;;;10.11;60.64;101455.84;124432;1102;104259;-79
2022/05/19 04:16:19;;;;;;;11.53;4.60;;;;;;;10.16;59.77;101446.48;125043;1102;104304;-79
2022/05/19 04:18:52;;;;;;;11.48;4.85;;;;;;;10.22;59.78;101452.05;125098;1102;104185;-79
2022/05/19 04:21:23;;;;;;;9.67;4.40;;;;;;;10.30;60.61;101452.45;124313;1099;104191;-78
2022/05/19 04:23:56;;;;;;;11.13;4.37;;;;;;;10.35;59.84;101454.53;124982;1099;104169;-79
2022/05/19 04:26:27;;;;;;;8.03;4.20;;;;;;;10.45;59.92;101452.39;124449;1102;102843;-80
2022/05/19 04:29:01;;;;;;;9.10;3.93;;;;;;;10.51;59.99;101458.84;125113;1099;104248;-79
2022/05/19 04:31:33;;;;;;;9.30;4.15;;;;;;;10.58;59.53;101463.59;125142;1099;104291;-80
2022/05/19 04:34:07;;;;;;;6.83;4.23;;;;;;;10.70;59.55;101459.78;125028;1102;104230;-78
2022/05/19 04:36:39;;;;;;;9.00;4.20;;;;;;;10.79;59.54;101461.13;125122;1099;103866;-80
2022/05/19 04:39:12;;;;;;;10.30;4.00;;;;;;;10.89;59.07;101457.27;125084;1102;104213;-79
2022/05/19 04:41:45;;;;;;;9.37;4.10;;;;;;;10.98;59.22;101456.80;124410;1099;102787;-79
2022/05/19 04:44:17;;;;;;;8.33;4.07;;;;;;;11.06;59.53;101459.80;124426;1099;104181;-79
2022/05/19 04:46:51;;;;;;;11.37;4.50;;;;;;;11.11;59.08;101451.34;124357;1099;103165;-80
2022/05/19 04:49:25;;;;;;;12.57;4.27;;;;;;;11.19;58.82;101453.41;124462;1099;104172;-81
2022/05/19 04:51:57;;;;;;;8.90;4.17;;;;;;;11.27;58.74;101458.22;125205;1099;104192;-79
2022/05/19 04:54:31;;;;;;;10.10;4.20;;;;;;;11.35;58.77;101463.85;125145;1099;105804;-79
2022/05/19 04:57:03;;;;;;;9.18;4.05;;;;;;;11.37;58.51;101450.78;125237;1099;102313;-79
2022/05/19 04:59:50;;;;;;;10.63;3.90;;;;;;;11.45;58.69;101466.10;125191;1102;104284;-79
2022/05/19 05:02:23;;;;;;;12.67;4.30;;;;;;;11.54;58.27;101455.10;125231;1102;102723;-79
2022/05/19 05:04:55;;;;;;;9.85;4.30;;;;;;;11.67;58.34;101462.75;124685;1102;102048;-80
2022/05/19 05:07:30;;;;;;;8.63;4.13;;;;;;;11.77;57.79;101464.06;124682;1099;104217;-80
2022/05/19 05:10:01;;;;;;;;;;;;;;;11.84;57.47;101460.91;124505;1100;104194;-78
2022/05/19 05:12:34;;;;;;;9.13;4.07;;;;;;;11.94;57.58;101463.98;124682;1101;102819;-79
2022/05/19 05:15:09;;;;;;;11.90;4.20;;;;;;;11.96;57.55;101460.58;125330;1102;104334;-81
2022/05/19 05:17:42;;;;;;;6.70;3.97;;;;;;;11.95;57.49;101456.17;125465;1099;103768;-80
2022/05/19 05:20:16;;;;;;;9.93;4.58;;;;;;;11.92;57.31;101460.33;125306;1099;104223;-79
2022/05/19 05:22:51;;;;;;;11.20;3.90;;;;;;;11.90;57.43;101457.63;124559;1102;104208;-79
2022/05/19 05:25:29;;;;;;;11.23;4.50;;;;;;;11.90;57.17;101456.73;124792;1099;119029;-79
2022/05/19 05:28:03;;;;;;;12.13;4.57;;;;;;;11.92;57.12;101452.44;125727;1099;102574;-79
2022/05/19 05:30:36;;;;;;;7.10;4.10;;;;;;;11.96;56.89;101452.69;124761;1102;102883;-79
2022/05/19 05:33:12;;;;;;;9.77;4.17;;;;;;;12.00;56.68;101454.63;124619;1099;103457;-79
2022/05/19 05:35:46;;;;;;;9.30;4.20;;;;;;;12.04;56.80;101455.66;124488;1099;102826;-79
2022/05/19 05:38:19;;;;;;;10.10;4.70;;;;;;;12.11;56.82;101457.75;124590;1099;102486;-81
2022/05/19 05:40:56;;;;;;;9.67;4.20;;;;;;;12.20;57.01;101455.53;124720;1099;104239;-79
2022/05/19 05:43:35;;;;;;;11.10;4.40;;;;;;;12.29;56.44;101462.91;124543;1102;104208;-78
2022/05/19 05:46:11;;;;;;;10.47;3.90;;;;;;;12.36;56.15;101457.09;124636;1099;109430;-78
2022/05/19 05:48:45;;;;;;;7.00;3.70;;;;;;;12.44;56.00;101451.27;124607;1102;102721;-77
2022/05/19 05:51:20;;;;;;;9.43;3.90;;;;;;;12.52;55.39;101463.02;124763;1099;102887;-80
2022/05/19 05:53:57;;;;;;;8.10;3.70;;;;;;;12.63;55.60;101455.59;124693;1103;102699;-79
2022/05/19 05:56:39;;;;;;;10.17;3.63;;;;;;;12.72;55.51;101461.25;125531;1102;104232;-79
2022/05/19 05:59:12;;;;;;;12.10;3.87;;;;;;;12.83;55.31;101453.80;125591;1099;102964;-81
2022/05/19 06:01:50;;;;;;;6.83;3.60;;;;;;;12.94;55.02;101460.41;124803;1102;103823;-80
2022/05/19 06:04:31;;;;;;;6.57;3.20;;;;;;;13.06;54.51;101458.27;125595;1099;102677;-80
2022/05/19 06:07:17;;;;;;;9.20;3.70;;;;;;;13.18;53.77;101447.31;125546;1099;103076;-80
2022/05/19 06:10:02;;;;;;;5.10;2.97;;;;;;;13.31;54.04;101454.88;125433;1102;104070;-80
2022/05/19 06:12:42;;;;;;;;;;;;;;;13.40;51.84;101457.03;125233;1099;103427;-79
2022/05/19 06:15:19;;;;;;;4.53;2.80;;;;;;;13.51;53.04;101453.89;125643;1099;104227;-81
2022/05/19 06:17:52;;;;;;;6.90;3.20;;;;;;;13.59;52.30;101441.93;124817;1099;104194;-79
2022/05/19 06:20:29;;;;;;;6.50;3.37;;;;;;;13.68;51.86;101446.64;125419;1102;104175;-83
2022/05/19 06:23:06;;;;;;;9.10;3.50;;;;;;;13.74;51.59;101446.87;125532;1102;103178;-81
2022/05/19 06:25:43;;;;;;;10.47;3.43;;;;;;;13.83;52.13;101444.58;125582;1099;103724;-79
2022/05/19 06:28:27;;;;;;;;;;;;;;;13.94;51.75;101437.06;125170;1099;102859;-80
2022/05/19 06:31:12;;;;;;;11.07;3.70;;;;;;;14.09;51.29;101442.02;125550;1101;103016;-79
2022/05/19 06:34:02;;;;;;;8.47;3.20;;;;;;;14.24;51.98;101437.27;125536;1102;104271;-82
2022/05/19 06:36:35;;;;;;;3.97;2.90;;;;;;;14.36;51.11;101442.98;125530;1102;103211;-82
2022/05/19 06:39:16;;;;;;;5.60;3.10;;;;;;;14.48;50.48;101446.92;125623;1099;102488;-80
2022/05/19 06:42:02;;;;;;;5.70;2.90;;;;;;;14.60;50.89;101442.09;125548;1102;104194;-76
2022/05/19 06:44:43;;;;;;;10.50;3.00;;;;;;;14.66;50.64;101447.59;125610;1102;104073;-77
2022/05/19 06:47:20;;;;;;;6.50;3.10;;;;;;;14.74;50.21;101440.81;125576;1099;104564;-79
2022/05/19 06:50:22;;;;;;;8.70;3.20;;;;;;;14.85;49.83;101442.89;125725;1099;103566;-78
2022/05/19 06:53:08;;;;;;;6.27;3.20;;;;;;;14.96;49.74;101437.97;125301;1102;102443;-81
2022/05/19 06:55:55;;;;;;;5.43;2.97;;;;;;;15.10;48.70;101448.16;125094;1102;104184;-80
2022/05/19 06:58:32;;;;;;;5.87;2.90;;;;;;;15.26;48.16;101446.00;125310;1106;103114;-82
2022/05/19 07:01:33;;;;;;;8.07;3.17;;;;;;;15.43;49.00;101444.77;125217;1102;102442;-78
2022/05/19 07:04:24;;;;;;;10.00;2.90;;;;;;;15.60;47.89;101447.94;125375;1102;103050;-82
2022/05/19 07:07:17;;;;;;;6.40;3.03;;;;;;;15.76;47.70;101443.99;125450;1102;104188;-79
2022/05/19 07:10:31;;;;;;;6.57;3.00;;;;;;;15.91;47.06;101434.73;125445;1102;102743;-79
2022/05/19 07:13:11;;;;;;;7.13;2.93;;;;;;;16.08;48.12;101443.16;125387;1102;104453;-79
2022/05/19 07:16:27;;;;;;;10.67;3.20;;;;;;;16.26;47.96;101429.55;125354;1101;103019;-79
2022/05/19 07:21:55;;;;;;;7.17;3.10;;;;;;;16.72;47.17;101428.11;125334;1102;104281;-80
2022/05/19 07:25:11;;;;;;;7.47;3.08;;;;;;;16.86;46.19;101426.73;125345;1102;104162;-78
2022/05/19 07:28:38;;;;;;;5.97;2.90;;;;;;;17.21;45.34;101417.82;124628;1101;119063;-77
2022/05/19 07:31:17;;;;;;;7.93;2.87;;;;;;;17.40;43.60;101417.36;125679;1099;102132;-79
2022/05/19 07:33:49;;;;;;;2.77;2.40;;;;;;;17.42;41.31;101431.58;126181;1099;105634;-80
2022/05/19 07:36:29;;;;;;;5.55;2.62;;;;;;;17.48;42.51;101422.84;126084;1099;102313;-80
2022/05/19 07:39:04;;;;;;;6.57;2.47;;;;;;;17.65;41.78;101430.28;126294;1099;104155;-79
2022/05/19 07:41:42;;;;;;;8.45;2.65;;;;;;;17.83;39.41;101419.17;126225;1098;103716;-78
2022/05/19 07:44:18;;;;;;;5.80;2.77;;;;;;;17.87;39.76;101415.69;124758;1099;103053;-77
2022/05/19 07:47:10;;;;;;;4.37;2.87;;;;;;;18.02;41.40;101417.81;125620;1098;103432;-79
2022/05/19 07:50:02;;;;;;;6.33;2.77;;;;;;;18.29;38.43;101415.69;126013;1099;104195;-81
2022/05/19 07:52:34;;;;;;;9.33;2.83;;;;;;;18.48;37.53;101426.62;125253;1099;104189;-80
2022/05/19 07:55:13;;;;;;;4.33;2.63;;;;;;;18.51;38.71;101426.67;125653;1099;104480;-83
2022/05/19 07:57:47;;;;;;;4.63;2.80;;;;;;;18.62;39.18;101411.83;125653;1099;102746;-80
2022/05/19 08:00:21;;;;;;;3.70;2.53;;;;;;;18.72;38.30;101401.36;125377;1099;102681;-79
2022/05/19 08:02:56;;;;;;;4.53;2.60;;;;;;;18.80;38.47;101405.03;126168;1098;102799;-79
2022/05/19 08:05:30;;;;;;;3.73;2.20;;;;;;;18.89;35.82;101412.30;126136;1099;104201;-78
2022/05/19 08:08:05;;;;;;;3.17;2.10;;;;;;;18.90;35.82;101399.03;125843;1099;102968;-77
2022/05/19 08:10:46;;;;;;;3.90;2.30;;;;;;;19.02;35.07;101415.16;125997;1099;104054;-77
2022/05/19 08:16:22;;;;;;;5.03;2.40;;;;;;;19.12;36.27;101392.27;125182;1099;104233;-79
2022/05/19 08:18:56;;;;;;;4.13;2.60;;;;;;;19.19;36.21;101401.22;125284;1099;103556;-79
2022/05/19 08:21:30;;;;;;;4.87;2.70;;;;;;;19.30;35.01;101399.60;125357;1099;103048;-78
2022/05/19 08:24:12;;;;;;;4.77;2.63;;;;;;;19.48;35.58;101395.43;124787;1099;104208;-77
2022/05/19 08:27:22;;;;;;;6.23;2.40;;;;;;;19.62;35.62;101384.93;126279;1099;104217;-77
2022/05/19 08:30:09;;;;;;;3.73;2.50;;;;;;;19.80;35.59;101395.84;126123;1099;110113;-77
2022/05/19 08:32:42;;;;;;;7.03;2.23;;;;;;;19.85;33.73;101394.16;125741;1099;101895;-76
2022/05/19 08:35:14;;;;;;;5.70;2.00;;;;;;;19.87;33.87;101389.73;124655;1099;104398;-78
2022/05/19 08:37:48;;;;;;;6.30;2.40;;;;;;;19.89;32.77;101401.28;124776;1102;104483;-78
2022/05/19 08:40:23;;;;;;;4.10;2.30;;;;;;;19.88;33.03;101391.53;124710;1102;102500;-78
2022/05/19 08:43:06;;;;;;;5.60;2.27;;;;;;;19.94;32.60;101398.67;124665;1102;104198;-79
2022/05/19 08:45:47;;;;;;;4.77;2.20;;;;;;;19.87;32.95;101396.83;125395;1102;102977;-79
2022/05/19 08:48:26;;;;;;;3.20;2.10;;;;;;;19.83;32.67;101387.01;125447;1102;103223;-81
2022/05/19 08:51:04;;;;;;;4.57;2.57;;;;;;;19.66;32.38;101408.95;125404;1102;104342;-79
2022/05/19 08:53:44;;;;;;;2.60;2.20;;;;;;;19.53;32.81;101385.73;125382;1099;102063;-81
2022/05/19 08:56:30;;;;;;;6.33;2.83;;;;;;;19.61;33.10;101385.83;124823;1102;104322;-81
2022/05/19 08:59:12;;;;;;;4.77;2.67;;;;;;;19.78;33.68;101386.07;125407;1102;102514;-81
2022/05/19 09:02:07;;;;;;;5.03;2.27;;;;;;;19.95;32.71;101383.61;124820;1102;104169;-82
2022/05/19 09:04:56;;;;;;;5.20;2.47;;;;;;;19.91;32.14;101398.63;125528;1102;104192;-82
2022/05/19 09:10:50;;;;;;;7.27;2.50;;;;;;;19.68;31.87;101383.27;125495;1102;104185;-79
2022/05/19 09:13:35;;;;;;;4.17;2.50;;;;;;;19.83;32.94;101381.68;125833;1099;103240;-80
2022/05/19 09:16:17;;;;;;;7.45;2.50;;;;;;;19.98;32.31;101375.65;126625;1099;102011;-79
2022/05/19 09:18:53;;;;;;;5.10;2.20;;;;;;;19.96;32.55;101377.38;125481;1099;104159;-79
2022/05/19 09:21:41;;;;;;;3.80;1.97;;;;;;;19.97;31.20;101393.37;125271;1098;104201;-78
2022/05/19 09:24:16;;;;;;;4.43;2.30;;;;;;;19.97;32.32;101379.18;125233;1099;104319;-79
2022/05/19 09:26:54;;;;;;;8.13;2.50;;;;;;;20.07;31.61;101375.72;125330;1099;104188;-79
2022/05/19 09:29:48;;;;;;;5.30;2.53;;;;;;;20.13;32.10;101370.45;125108;1099;104408;-81
2022/05/19 09:32:31;;;;;;;4.90;2.55;;;;;;;20.17;31.70;101388.27;126187;1099;102518;-80
2022/05/19 09:35:09;;;;;;;3.33;2.30;;;;;;;20.15;31.39;101382.04;126093;1099;104230;-83
2022/05/19 09:37:55;;;;;;;5.37;2.20;;;;;;;20.06;32.10;101364.17;125856;1099;104226;-84
2022/05/19 09:40:33;;;;;;;6.67;2.30;;;;;;;20.16;32.22;101373.15;126387;1099;102449;-80
2022/05/19 09:43:36;;;;;;;3.77;2.20;;;;;;;20.30;30.87;101367.95;126216;1099;104169;-82
2022/05/19 09:46:15;;;;;;;3.10;2.10;;;;;;;20.36;30.94;101360.02;126856;1098;103132;-79
2022/05/19 09:49:02;;;;;;;4.93;2.10;;;;;;;20.34;30.58;101369.78;127053;1098;102019;-81
2022/05/19 09:51:49;;;;;;;5.83;2.30;;;;;;;20.43;31.69;101356.54;126806;1099;103313;-79
2022/05/19 09:54:23;;;;;;;4.10;2.20;;;;;;;20.52;30.76;101344.16;126131;1099;104207;-81
2022/05/19 09:57:06;;;;;;;3.10;1.90;;;;;;;20.51;31.05;101351.28;126281;1099;103690;-81
2022/05/19 10:00:07;;;;;;;3.57;1.97;;;;;;;20.52;29.93;101341.49;126260;1099;103181;-82
2022/05/19 10:09:42;;;;;;;5.47;2.00;;;;;;;20.56;29.54;101329.98;126473;1099;103132;-82
2022/05/19 10:12:30;;;;;;;3.40;2.03;;;;;;;20.64;30.50;101320.27;126207;1099;103604;-80
2022/05/19 10:15:35;;;;;;;6.13;2.20;;;;;;;20.69;30.33;101318.55;126470;1099;102926;-82
2022/05/19 10:18:18;;;;;;;2.53;1.87;;;;;;;20.62;29.86;101322.03;126353;1099;103527;-84
2022/05/19 10:21:03;;;;;;;3.33;1.97;;;;;;;20.68;29.63;101311.45;126125;1099;102532;-81
2022/05/19 10:23:48;;;;;;;2.97;1.63;;;;;;;20.77;29.25;101329.27;126202;1099;104088;-81
2022/05/19 10:26:35;;;;;;;3.90;1.60;;;;;;;20.82;29.64;101311.55;125580;1099;105432;-80
2022/05/19 10:32:49;;;;;;;2.63;1.70;;;;;;;21.04;28.48;101309.00;125781;1099;104130;-82
2022/05/19 10:35:55;;;;;;;5.80;1.63;;;;;;;20.97;29.22;101321.39;126104;1099;104304;-79
2022/05/19 10:38:45;;;;;;;3.73;1.80;;;;;;;21.00;28.60;101316.99;126158;1099;102119;-80
2022/05/19 10:41:35;;;;;;;2.33;1.77;;;;;;;20.91;28.70;101321.36;126093;1099;104343;-78
2022/05/19 10:44:21;;;;;;;3.33;1.77;;;;;;;20.96;28.61;101300.95;126071;1099;104373;-80
2022/05/19 10:47:02;;;;;;;4.23;1.90;;;;;;;21.04;28.68;101301.88;125685;1100;103118;-79
2022/05/19 10:50:09;;;;;;;4.80;1.83;;;;;;;21.07;28.98;101291.22;126243;1098;103497;-82
2022/05/19 10:53:05;;;;;;;6.73;2.00;;;;;;;21.11;27.96;101298.34;125972;1099;103027;-82
2022/05/19 10:55:49;;;;;;;7.13;2.10;;;;;;;21.13;28.49;101301.02;126270;1098;103311;-79
2022/05/19 10:58:43;;;;;;;5.77;2.27;;;;;;;21.19;27.71;101295.70;126191;1099;104874;-79
2022/05/19 11:01:30;;;;;;;3.52;2.10;;;;;;;21.33;28.40;101299.36;126191;1099;102979;-80
2022/05/19 11:04:27;;;;;;;5.73;2.30;;;;;;;21.43;29.05;101297.60;125643;1099;109928;-79
2022/05/19 11:07:24;;;;;;;9.40;2.60;;;;;;;21.47;28.75;101280.72;126747;1099;101713;-79
2022/05/19 11:10:04;;;;;;;3.57;1.97;;;;;;;21.46;28.09;101294.06;125458;1099;104176;-79
2022/05/19 11:12:47;;;;;;;4.20;1.83;;;;;;;21.46;27.85;101292.27;126104;1099;104211;-81
2022/05/19 11:15:23;;;;;;;;;;;;;;;21.55;27.92;101294.13;126357;1099;102479;-81
2022/05/19 11:18:12;;;;;;;4.50;2.00;;;;;;;21.70;29.11;101285.24;125471;1102;103213;-81
2022/05/19 11:21:04;;;;;;;3.93;1.90;;;;;;;21.84;28.73;101293.28;125574;1102;102967;-81
2022/05/19 11:26:23;;;;;;;5.03;1.47;;;;;;;21.98;28.33;101296.86;125512;1102;102971;-80
2022/05/19 11:27:56;;;;;;;3.00;2.02;;;;;;;22.04;28.49;101270.15;125419;1101;104262;-80
2022/05/19 11:30:39;;;;;;;3.17;2.00;;;;;;;22.06;28.40;101267.48;125437;1102;102535;-78
2022/05/19 11:33:33;;;;;;;;;;;;;;;;;;;;;
2022/05/19 11:36:16;;;;;;;6.83;2.90;;;;;;;21.95;27.79;101259.45;125419;1102;102445;-81
2022/05/19 11:39:01;;;;;;;5.67;1.97;;;;;;;21.95;28.62;101263.92;124541;1102;104194;-82
2022/05/19 11:41:49;;;;;;;6.00;2.10;;;;;;;21.96;28.34;101250.55;125561;1102;104345;-78
2022/05/19 11:44:46;;;;;;;5.03;2.03;;;;;;;22.03;28.70;101249.69;125460;1102;102570;-80
2022/05/19 11:59:23;;;;;;;3.00;2.00;;;;;;;21.89;27.49;101254.10;126120;1099;102511;-79
2022/05/19 12:01:57;;;;;;;4.87;2.20;;;;;;;21.80;28.24;101230.97;125951;1099;104297;-82
2022/05/19 12:05:17;;;;;;;3.37;1.97;;;;;;;21.94;27.66;101235.41;126922;1098;102604;-82
2022/05/19 12:08:18;;;;;;;2.17;1.80;;;;;;;21.88;27.76;101231.85;126466;1098;103658;-78
2022/05/19 12:11:20;;;;;;;3.83;1.73;;;;;;;21.80;27.06;101222.03;125436;1098;102903;-78
2022/05/19 12:14:16;;;;;;;3.50;1.90;;;;;;;21.73;26.83;101231.83;125984;1099;103308;-79
2022/05/19 12:16:56;;;;;;;4.77;1.90;;;;;;;21.68;26.90;101225.60;126024;1099;104117;-79
2022/05/19 12:19:37;;;;;;;1.70;1.60;;;;;;;21.61;27.67;101216.67;126065;1099;103014;-77
2022/05/19 12:22:18;;;;;;;2.70;1.50;;;;;;;21.65;27.63;101220.25;125136;1099;104093;-80
2022/05/19 12:25:36;;;;;;;3.90;1.70;;;;;;;21.76;27.27;101221.16;125237;1098;104146;-80
2022/05/19 12:34:36;;;;;;;4.58;1.82;;;;;;;22.20;27.14;101201.54;125620;1101;102920;-80
2022/05/19 12:37:50;;;;;;;4.67;1.93;;;;;;;22.33;26.33;101190.86;125261;1102;104108;-78
2022/05/19 12:40:31;;;;;;;2.17;1.90;;;;;;;22.24;26.48;101197.98;124823;1106;103746;-79
2022/05/19 12:43:26;;;;;;;5.63;1.90;;;;;;;22.30;26.19;101217.56;124943;1109;104273;-78
2022/05/19 12:46:01;;;;;;;2.63;1.97;;;;;;;22.24;25.80;101195.31;124908;1105;103304;-77
2022/05/19 12:49:13;;;;;;;3.17;1.63;;;;;;;22.17;26.46;101212.23;124904;1105;104137;-79
2022/05/19 12:51:59;;;;;;;4.90;2.13;;;;;;;22.14;26.63;101196.20;124902;1106;102164;-76